sensor_id;sensor_type;location;lat;lon;timestamp;temperature;humidity
7030;DHT22;3556;53.500;10.176;2022-12-19T00:01:49;-2.50;99.90
7030;DHT22;3556;53.500;10.176;2022-12-19T00:04:14;-2.40;99.90
7030;DHT22;3556;53.500;10.176;2022-12-19T00:06:44;-2.40;99.90
7030;DHT22;3556;53.500;10.176;2022-12-19T00:09:11;-2.40;99.90
7030;DHT22;3556;53.500;10.176;2022-12-19T00:11:37;-2.50;99.90
7030;DHT22;3556;53.500;10.176;2022-12-19T00:14:03;-2.50;99.90
7030;DHT22;3556;53.500;10.176;2022-12-19T00:16:29;-2.40;99.90
7030;DHT22;3556;53.500;10.176;2022-12-19T00:18:56;-2.50;99.90
7030;DHT22;3556;53.500;10.176;2022-12-19T00:21:25;-2.50;99.90
7030;DHT22;3556;53.500;10.176;2022-12-19T00:23:51;-2.50;99.90
7030;DHT22;3556;53.500;10.176;2022-12-19T00:26:18;-2.50;99.90
7030;DHT22;3556;53.500;10.176;2022-12-19T00:28:46;-2.50;99.90
7030;DHT22;3556;53.500;10.176;2022-12-19T00:31:13;-2.60;99.90
7030;DHT22;3556;53.500;10.176;2022-12-19T00:33:40;-2.60;99.90
7030;DHT22;3556;53.500;10.176;2022-12-19T00:36:11;-2.60;99.90
7030;DHT22;3556;53.500;10.176;2022-12-19T00:38:37;-2.60;99.90
7030;DHT22;3556;53.500;10.176;2022-12-19T00:41:11;-2.60;99.90
7030;DHT22;3556;53.500;10.176;2022-12-19T00:43:37;-2.60;99.90
7030;DHT22;3556;53.500;10.176;2022-12-19T00:46:04;-2.60;99.90
7030;DHT22;3556;53.500;10.176;2022-12-19T00:48:30;-2.60;99.90
7030;DHT22;3556;53.500;10.176;2022-12-19T00:51:05;-2.60;99.90
7030;DHT22;3556;53.500;10.176;2022-12-19T00:53:32;-2.60;99.90
7030;DHT22;3556;53.500;10.176;2022-12-19T00:56:07;-2.60;99.90
7030;DHT22;3556;53.500;10.176;2022-12-19T00:58:33;-2.60;99.90
7030;DHT22;3556;53.500;10.176;2022-12-19T01:01:08;-2.60;99.90
7030;DHT22;3556;53.500;10.176;2022-12-19T01:03:34;-2.60;99.90
7030;DHT22;3556;53.500;10.176;2022-12-19T01:05:59;-2.60;99.90
7030;DHT22;3556;53.500;10.176;2022-12-19T01:08:25;-2.60;99.90
7030;DHT22;3556;53.500;10.176;2022-12-19T01:10:52;-2.50;99.90
7030;DHT22;3556;53.500;10.176;2022-12-19T01:13:20;-2.50;99.90
7030;DHT22;3556;53.500;10.176;2022-12-19T01:15:45;-2.60;99.90
7030;DHT22;3556;53.500;10.176;2022-12-19T01:18:11;-2.50;99.90
7030;DHT22;3556;53.500;10.176;2022-12-19T01:20:38;-2.60;99.90
7030;DHT22;3556;53.500;10.176;2022-12-19T01:23:05;-2.50;99.90
7030;DHT22;3556;53.500;10.176;2022-12-19T01:25:32;-2.50;99.90
7030;DHT22;3556;53.500;10.176;2022-12-19T01:27:58;-2.50;99.90
7030;DHT22;3556;53.500;10.176;2022-12-19T01:30:25;-2.50;99.90
7030;DHT22;3556;53.500;10.176;2022-12-19T01:32:50;-2.50;99.90
7030;DHT22;3556;53.500;10.176;2022-12-19T01:35:16;-2.50;99.90
7030;DHT22;3556;53.500;10.176;2022-12-19T01:37:42;-2.50;99.90
7030;DHT22;3556;53.500;10.176;2022-12-19T01:40:10;-2.50;99.90
7030;DHT22;3556;53.500;10.176;2022-12-19T01:42:36;-2.50;99.90
7030;DHT22;3556;53.500;10.176;2022-12-19T01:47:53;-2.50;99.90
7030;DHT22;3556;53.500;10.176;2022-12-19T01:50:27;-2.50;99.90
7030;DHT22;3556;53.500;10.176;2022-12-19T01:52:54;-2.40;99.90
7030;DHT22;3556;53.500;10.176;2022-12-19T01:55:20;-2.50;99.90
7030;DHT22;3556;53.500;10.176;2022-12-19T01:57:46;-2.50;99.90
7030;DHT22;3556;53.500;10.176;2022-12-19T02:00:12;-2.40;99.90
7030;DHT22;3556;53.500;10.176;2022-12-19T02:02:45;-2.40;99.90
7030;DHT22;3556;53.500;10.176;2022-12-19T02:05:13;-2.40;99.90
7030;DHT22;3556;53.500;10.176;2022-12-19T02:07:39;-2.40;99.90
7030;DHT22;3556;53.500;10.176;2022-12-19T02:10:06;-2.40;99.90
7030;DHT22;3556;53.500;10.176;2022-12-19T02:12:36;-2.40;99.90
7030;DHT22;3556;53.500;10.176;2022-12-19T02:15:02;-2.40;99.90
7030;DHT22;3556;53.500;10.176;2022-12-19T02:18:03;-2.30;99.90
7030;DHT22;3556;53.500;10.176;2022-12-19T02:35:17;-2.20;99.90
7030;DHT22;3556;53.500;10.176;2022-12-19T02:37:48;-2.10;99.90
7030;DHT22;3556;53.500;10.176;2022-12-19T02:40:20;-2.10;99.90
7030;DHT22;3556;53.500;10.176;2022-12-19T02:42:51;-2.10;99.90
7030;DHT22;3556;53.500;10.176;2022-12-19T02:45:20;-2.00;99.90
7030;DHT22;3556;53.500;10.176;2022-12-19T02:47:47;-2.00;99.90
7030;DHT22;3556;53.500;10.176;2022-12-19T02:50:13;-2.00;99.90
7030;DHT22;3556;53.500;10.176;2022-12-19T02:52:43;-2.00;99.90
7030;DHT22;3556;53.500;10.176;2022-12-19T02:55:13;-2.00;99.90
7030;DHT22;3556;53.500;10.176;2022-12-19T03:00:09;-1.90;99.90
7030;DHT22;3556;53.500;10.176;2022-12-19T03:05:23;-1.90;99.90
7030;DHT22;3556;53.500;10.176;2022-12-19T03:13:40;-1.90;99.90
7030;DHT22;3556;53.500;10.176;2022-12-19T03:16:08;-1.90;99.90
7030;DHT22;3556;53.500;10.176;2022-12-19T03:18:34;-1.80;99.90
7030;DHT22;3556;53.500;10.176;2022-12-19T03:23:32;-1.80;99.90
7030;DHT22;3556;53.500;10.176;2022-12-19T03:26:06;-1.80;99.90
7030;DHT22;3556;53.500;10.176;2022-12-19T03:28:58;-1.80;99.90
7030;DHT22;3556;53.500;10.176;2022-12-19T03:31:28;-1.80;99.90
7030;DHT22;3556;53.500;10.176;2022-12-19T03:34:00;-1.70;99.90
7030;DHT22;3556;53.500;10.176;2022-12-19T03:36:31;-1.70;99.90
7030;DHT22;3556;53.500;10.176;2022-12-19T03:38:59;-1.70;99.90
7030;DHT22;3556;53.500;10.176;2022-12-19T03:41:26;-1.70;99.90
7030;DHT22;3556;53.500;10.176;2022-12-19T03:44:11;-1.60;99.90
7030;DHT22;3556;53.500;10.176;2022-12-19T03:46:42;-1.60;99.90
7030;DHT22;3556;53.500;10.176;2022-12-19T03:49:10;-1.60;99.90
7030;DHT22;3556;53.500;10.176;2022-12-19T03:51:59;-1.60;99.90
7030;DHT22;3556;53.500;10.176;2022-12-19T03:54:38;-1.60;99.90
7030;DHT22;3556;53.500;10.176;2022-12-19T03:57:18;-1.50;99.90
7030;DHT22;3556;53.500;10.176;2022-12-19T03:59:54;-1.50;99.90
7030;DHT22;3556;53.500;10.176;2022-12-19T04:02:21;-1.50;99.90
7030;DHT22;3556;53.500;10.176;2022-12-19T04:05:01;-1.50;99.90
7030;DHT22;3556;53.500;10.176;2022-12-19T04:07:28;-1.40;99.90
7030;DHT22;3556;53.500;10.176;2022-12-19T04:09:54;-1.40;99.90
7030;DHT22;3556;53.500;10.176;2022-12-19T04:12:30;-1.50;99.90
7030;DHT22;3556;53.500;10.176;2022-12-19T04:14:57;-1.40;99.90
7030;DHT22;3556;53.500;10.176;2022-12-19T04:17:38;-1.40;99.90
7030;DHT22;3556;53.500;10.176;2022-12-19T04:20:08;-1.40;99.90
7030;DHT22;3556;53.500;10.176;2022-12-19T04:25:42;-1.40;99.90
7030;DHT22;3556;53.500;10.176;2022-12-19T04:28:15;-1.40;99.90
7030;DHT22;3556;53.500;10.176;2022-12-19T04:30:43;-1.40;99.90
7030;DHT22;3556;53.500;10.176;2022-12-19T04:33:09;-1.40;99.90
7030;DHT22;3556;53.500;10.176;2022-12-19T04:35:35;-1.30;99.90
7030;DHT22;3556;53.500;10.176;2022-12-19T04:38:01;-1.30;99.90
7030;DHT22;3556;53.500;10.176;2022-12-19T04:40:27;-1.30;99.90
7030;DHT22;3556;53.500;10.176;2022-12-19T04:42:52;-1.30;99.90
7030;DHT22;3556;53.500;10.176;2022-12-19T04:45:18;-1.30;99.90
7030;DHT22;3556;53.500;10.176;2022-12-19T04:47:43;-1.30;99.90
7030;DHT22;3556;53.500;10.176;2022-12-19T04:50:09;-1.30;99.90
7030;DHT22;3556;53.500;10.176;2022-12-19T04:52:35;-1.30;99.90
7030;DHT22;3556;53.500;10.176;2022-12-19T04:55:01;-1.20;99.90
7030;DHT22;3556;53.500;10.176;2022-12-19T04:57:30;-1.20;99.90
7030;DHT22;3556;53.500;10.176;2022-12-19T04:59:56;-1.20;99.90
7030;DHT22;3556;53.500;10.176;2022-12-19T05:02:22;-1.20;99.90
7030;DHT22;3556;53.500;10.176;2022-12-19T05:04:49;-1.20;99.90
7030;DHT22;3556;53.500;10.176;2022-12-19T05:07:14;-1.20;99.90
7030;DHT22;3556;53.500;10.176;2022-12-19T05:09:40;-1.10;99.90
7030;DHT22;3556;53.500;10.176;2022-12-19T05:12:06;-1.10;99.90
7030;DHT22;3556;53.500;10.176;2022-12-19T05:14:32;-1.00;99.90
7030;DHT22;3556;53.500;10.176;2022-12-19T05:16:58;-1.00;99.90
7030;DHT22;3556;53.500;10.176;2022-12-19T05:19:24;-1.00;99.90
7030;DHT22;3556;53.500;10.176;2022-12-19T05:21:49;-0.90;99.90
7030;DHT22;3556;53.500;10.176;2022-12-19T05:24:15;-0.90;99.90
7030;DHT22;3556;53.500;10.176;2022-12-19T05:26:40;-0.90;99.90
7030;DHT22;3556;53.500;10.176;2022-12-19T05:29:07;-0.90;99.90
7030;DHT22;3556;53.500;10.176;2022-12-19T05:31:33;-0.90;99.90
7030;DHT22;3556;53.500;10.176;2022-12-19T05:33:58;-0.90;99.90
7030;DHT22;3556;53.500;10.176;2022-12-19T05:36:24;-0.80;99.90
7030;DHT22;3556;53.500;10.176;2022-12-19T05:38:50;-0.80;99.90
7030;DHT22;3556;53.500;10.176;2022-12-19T05:41:18;-0.80;99.90
7030;DHT22;3556;53.500;10.176;2022-12-19T05:43:47;-0.80;99.90
7030;DHT22;3556;53.500;10.176;2022-12-19T05:46:13;-0.80;99.90
7030;DHT22;3556;53.500;10.176;2022-12-19T05:48:39;-0.70;99.90
7030;DHT22;3556;53.500;10.176;2022-12-19T05:51:05;-0.70;99.90
7030;DHT22;3556;53.500;10.176;2022-12-19T05:53:31;-0.70;99.90
7030;DHT22;3556;53.500;10.176;2022-12-19T05:56:08;-0.60;99.90
7030;DHT22;3556;53.500;10.176;2022-12-19T05:58:34;-0.60;99.90
7030;DHT22;3556;53.500;10.176;2022-12-19T06:01:02;-0.60;99.90
7030;DHT22;3556;53.500;10.176;2022-12-19T06:03:27;-0.50;99.90
7030;DHT22;3556;53.500;10.176;2022-12-19T06:05:53;-0.50;99.90
7030;DHT22;3556;53.500;10.176;2022-12-19T06:08:19;-0.50;99.90
7030;DHT22;3556;53.500;10.176;2022-12-19T06:10:44;-0.40;99.90
7030;DHT22;3556;53.500;10.176;2022-12-19T06:13:10;-0.40;99.90
7030;DHT22;3556;53.500;10.176;2022-12-19T06:15:36;-0.40;99.90
7030;DHT22;3556;53.500;10.176;2022-12-19T06:18:02;-0.30;99.90
7030;DHT22;3556;53.500;10.176;2022-12-19T06:20:27;-0.30;99.90
7030;DHT22;3556;53.500;10.176;2022-12-19T06:22:53;-0.30;99.90
7030;DHT22;3556;53.500;10.176;2022-12-19T06:25:18;-0.20;99.90
7030;DHT22;3556;53.500;10.176;2022-12-19T06:27:44;-0.20;99.90
7030;DHT22;3556;53.500;10.176;2022-12-19T06:30:10;-0.10;99.90
7030;DHT22;3556;53.500;10.176;2022-12-19T06:32:36;-0.10;99.90
7030;DHT22;3556;53.500;10.176;2022-12-19T06:35:01;-0.10;99.90
7030;DHT22;3556;53.500;10.176;2022-12-19T06:37:27;0.00;99.90
7030;DHT22;3556;53.500;10.176;2022-12-19T06:39:52;0.00;99.90
7030;DHT22;3556;53.500;10.176;2022-12-19T06:42:18;0.00;99.90
7030;DHT22;3556;53.500;10.176;2022-12-19T06:44:51;0.00;99.90
7030;DHT22;3556;53.500;10.176;2022-12-19T06:47:17;0.00;99.90
7030;DHT22;3556;53.500;10.176;2022-12-19T06:49:42;0.00;99.90
7030;DHT22;3556;53.500;10.176;2022-12-19T06:52:08;0.10;99.90
7030;DHT22;3556;53.500;10.176;2022-12-19T06:54:34;0.10;99.90
7030;DHT22;3556;53.500;10.176;2022-12-19T06:56:59;0.20;99.90
7030;DHT22;3556;53.500;10.176;2022-12-19T06:59:25;0.20;99.90
7030;DHT22;3556;53.500;10.176;2022-12-19T07:04:35;0.20;99.90
7030;DHT22;3556;53.500;10.176;2022-12-19T07:07:02;0.30;99.90
7030;DHT22;3556;53.500;10.176;2022-12-19T07:09:29;0.30;99.90
7030;DHT22;3556;53.500;10.176;2022-12-19T07:11:56;0.30;99.90
7030;DHT22;3556;53.500;10.176;2022-12-19T07:14:22;0.30;99.90
7030;DHT22;3556;53.500;10.176;2022-12-19T07:16:48;0.30;99.90
7030;DHT22;3556;53.500;10.176;2022-12-19T07:19:15;0.30;99.90
7030;DHT22;3556;53.500;10.176;2022-12-19T07:21:41;0.40;99.90
7030;DHT22;3556;53.500;10.176;2022-12-19T07:24:07;0.40;99.90
7030;DHT22;3556;53.500;10.176;2022-12-19T07:26:33;0.40;99.90
7030;DHT22;3556;53.500;10.176;2022-12-19T07:28:59;0.40;99.90
7030;DHT22;3556;53.500;10.176;2022-12-19T07:31:25;0.40;99.90
7030;DHT22;3556;53.500;10.176;2022-12-19T07:33:51;0.40;99.90
7030;DHT22;3556;53.500;10.176;2022-12-19T07:36:16;0.40;99.90
7030;DHT22;3556;53.500;10.176;2022-12-19T07:38:42;0.40;99.90
7030;DHT22;3556;53.500;10.176;2022-12-19T07:41:09;0.50;99.90
7030;DHT22;3556;53.500;10.176;2022-12-19T07:43:34;0.50;99.90
7030;DHT22;3556;53.500;10.176;2022-12-19T07:46:00;0.50;99.90
7030;DHT22;3556;53.500;10.176;2022-12-19T07:48:25;0.50;99.90
7030;DHT22;3556;53.500;10.176;2022-12-19T07:50:53;0.50;99.90
7030;DHT22;3556;53.500;10.176;2022-12-19T07:53:18;0.50;99.90
7030;DHT22;3556;53.500;10.176;2022-12-19T07:55:44;0.50;99.90
7030;DHT22;3556;53.500;10.176;2022-12-19T07:58:10;0.50;99.90
7030;DHT22;3556;53.500;10.176;2022-12-19T08:00:36;0.50;99.90
7030;DHT22;3556;53.500;10.176;2022-12-19T08:03:02;0.60;99.90
7030;DHT22;3556;53.500;10.176;2022-12-19T08:05:28;0.60;99.90
7030;DHT22;3556;53.500;10.176;2022-12-19T08:07:54;0.60;99.90
7030;DHT22;3556;53.500;10.176;2022-12-19T08:10:20;0.60;99.90
7030;DHT22;3556;53.500;10.176;2022-12-19T08:12:47;0.60;99.90
7030;DHT22;3556;53.500;10.176;2022-12-19T08:15:13;0.60;99.90
7030;DHT22;3556;53.500;10.176;2022-12-19T08:17:39;0.60;99.90
7030;DHT22;3556;53.500;10.176;2022-12-19T08:20:06;0.70;99.90
7030;DHT22;3556;53.500;10.176;2022-12-19T08:22:32;0.70;99.90
7030;DHT22;3556;53.500;10.176;2022-12-19T08:24:58;0.70;99.90
7030;DHT22;3556;53.500;10.176;2022-12-19T08:27:24;0.70;99.90
7030;DHT22;3556;53.500;10.176;2022-12-19T08:29:50;0.70;99.90
7030;DHT22;3556;53.500;10.176;2022-12-19T08:32:15;0.70;99.90
7030;DHT22;3556;53.500;10.176;2022-12-19T08:34:41;0.70;99.90
7030;DHT22;3556;53.500;10.176;2022-12-19T08:37:08;0.70;99.90
7030;DHT22;3556;53.500;10.176;2022-12-19T08:39:33;0.70;99.90
7030;DHT22;3556;53.500;10.176;2022-12-19T08:41:59;0.70;99.90
7030;DHT22;3556;53.500;10.176;2022-12-19T08:44:25;0.70;99.90
7030;DHT22;3556;53.500;10.176;2022-12-19T08:46:51;0.70;99.90
7030;DHT22;3556;53.500;10.176;2022-12-19T08:49:17;0.70;99.90
7030;DHT22;3556;53.500;10.176;2022-12-19T08:51:44;0.80;99.90
7030;DHT22;3556;53.500;10.176;2022-12-19T08:54:09;0.80;99.90
7030;DHT22;3556;53.500;10.176;2022-12-19T08:56:36;0.80;99.90
7030;DHT22;3556;53.500;10.176;2022-12-19T08:59:02;0.90;99.90
7030;DHT22;3556;53.500;10.176;2022-12-19T09:01:28;0.90;99.90
7030;DHT22;3556;53.500;10.176;2022-12-19T09:03:57;0.90;99.90
7030;DHT22;3556;53.500;10.176;2022-12-19T09:06:24;0.90;99.90
7030;DHT22;3556;53.500;10.176;2022-12-19T09:08:50;0.90;99.90
7030;DHT22;3556;53.500;10.176;2022-12-19T09:11:18;0.90;99.90
7030;DHT22;3556;53.500;10.176;2022-12-19T09:13:45;1.00;99.90
7030;DHT22;3556;53.500;10.176;2022-12-19T09:16:13;1.00;99.90
7030;DHT22;3556;53.500;10.176;2022-12-19T09:18:39;1.00;99.90
7030;DHT22;3556;53.500;10.176;2022-12-19T09:21:05;1.00;99.90
7030;DHT22;3556;53.500;10.176;2022-12-19T09:23:32;1.00;99.90
7030;DHT22;3556;53.500;10.176;2022-12-19T09:26:07;1.10;99.90
7030;DHT22;3556;53.500;10.176;2022-12-19T09:28:34;1.10;99.90
7030;DHT22;3556;53.500;10.176;2022-12-19T09:31:03;1.10;99.90
7030;DHT22;3556;53.500;10.176;2022-12-19T09:33:31;1.20;99.90
7030;DHT22;3556;53.500;10.176;2022-12-19T09:35:57;1.20;99.90
7030;DHT22;3556;53.500;10.176;2022-12-19T09:38:24;1.20;99.90
7030;DHT22;3556;53.500;10.176;2022-12-19T09:49:13;1.30;99.90
7030;DHT22;3556;53.500;10.176;2022-12-19T09:57:02;1.30;99.90
7030;DHT22;3556;53.500;10.176;2022-12-19T09:59:41;1.30;99.90
7030;DHT22;3556;53.500;10.176;2022-12-19T10:02:21;1.30;99.90
7030;DHT22;3556;53.500;10.176;2022-12-19T10:04:51;1.30;99.90
7030;DHT22;3556;53.500;10.176;2022-12-19T10:07:18;1.40;99.90
7030;DHT22;3556;53.500;10.176;2022-12-19T10:09:44;1.40;99.90
7030;DHT22;3556;53.500;10.176;2022-12-19T10:22:58;1.50;99.90
7030;DHT22;3556;53.500;10.176;2022-12-19T10:31:15;1.60;99.90
7030;DHT22;3556;53.500;10.176;2022-12-19T10:33:50;1.60;99.90
7030;DHT22;3556;53.500;10.176;2022-12-19T10:36:18;1.60;99.90
7030;DHT22;3556;53.500;10.176;2022-12-19T10:38:57;1.70;99.90
7030;DHT22;3556;53.500;10.176;2022-12-19T10:41:31;1.70;99.90
7030;DHT22;3556;53.500;10.176;2022-12-19T10:44:04;1.70;99.90
7030;DHT22;3556;53.500;10.176;2022-12-19T10:46:52;1.70;99.90
7030;DHT22;3556;53.500;10.176;2022-12-19T10:49:24;1.70;99.90
7030;DHT22;3556;53.500;10.176;2022-12-19T10:52:00;1.80;99.90
7030;DHT22;3556;53.500;10.176;2022-12-19T10:57:24;1.80;99.90
7030;DHT22;3556;53.500;10.176;2022-12-19T11:00:00;1.90;99.90
7030;DHT22;3556;53.500;10.176;2022-12-19T11:05:04;1.90;99.90
7030;DHT22;3556;53.500;10.176;2022-12-19T11:07:31;1.90;99.90
7030;DHT22;3556;53.500;10.176;2022-12-19T11:09:56;1.90;99.90
7030;DHT22;3556;53.500;10.176;2022-12-19T11:12:25;2.00;99.90
7030;DHT22;3556;53.500;10.176;2022-12-19T11:17:37;2.00;99.90
7030;DHT22;3556;53.500;10.176;2022-12-19T11:20:18;2.10;99.90
7030;DHT22;3556;53.500;10.176;2022-12-19T11:22:57;2.10;99.90
7030;DHT22;3556;53.500;10.176;2022-12-19T11:25:40;2.10;99.90
7030;DHT22;3556;53.500;10.176;2022-12-19T11:30:41;2.20;99.90
7030;DHT22;3556;53.500;10.176;2022-12-19T11:33:14;2.20;99.90
7030;DHT22;3556;53.500;10.176;2022-12-19T11:35:49;2.20;99.90
7030;DHT22;3556;53.500;10.176;2022-12-19T11:38:20;2.30;99.90
7030;DHT22;3556;53.500;10.176;2022-12-19T11:40:55;2.30;99.90
7030;DHT22;3556;53.500;10.176;2022-12-19T11:43:40;2.30;99.90
7030;DHT22;3556;53.500;10.176;2022-12-19T11:51:59;2.40;99.90
7030;DHT22;3556;53.500;10.176;2022-12-19T11:54:36;2.40;99.90
7030;DHT22;3556;53.500;10.176;2022-12-19T11:57:08;2.40;99.90
7030;DHT22;3556;53.500;10.176;2022-12-19T11:59:37;2.40;99.90
7030;DHT22;3556;53.500;10.176;2022-12-19T12:05:50;2.50;99.90
7030;DHT22;3556;53.500;10.176;2022-12-19T12:14:12;2.50;99.90
7030;DHT22;3556;53.500;10.176;2022-12-19T12:22:06;2.70;99.90
7030;DHT22;3556;53.500;10.176;2022-12-19T12:30:10;2.90;99.90
7030;DHT22;3556;53.500;10.176;2022-12-19T12:33:06;2.90;99.90
7030;DHT22;3556;53.500;10.176;2022-12-19T12:35:50;3.00;99.90
7030;DHT22;3556;53.500;10.176;2022-12-19T12:44:07;3.00;99.90
7030;DHT22;3556;53.500;10.176;2022-12-19T12:46:58;3.10;99.90
7030;DHT22;3556;53.500;10.176;2022-12-19T12:52:01;3.10;99.90
7030;DHT22;3556;53.500;10.176;2022-12-19T12:54:35;3.10;99.90
7030;DHT22;3556;53.500;10.176;2022-12-19T12:57:02;3.10;99.90
7030;DHT22;3556;53.500;10.176;2022-12-19T12:59:29;3.10;99.90
7030;DHT22;3556;53.500;10.176;2022-12-19T13:02:05;3.10;99.90
7030;DHT22;3556;53.500;10.176;2022-12-19T13:04:34;3.20;99.90
7030;DHT22;3556;53.500;10.176;2022-12-19T13:07:12;3.20;99.90
7030;DHT22;3556;53.500;10.176;2022-12-19T13:09:38;3.20;99.90
7030;DHT22;3556;53.500;10.176;2022-12-19T13:12:25;3.20;99.90
7030;DHT22;3556;53.500;10.176;2022-12-19T13:18:12;3.30;99.90
7030;DHT22;3556;53.500;10.176;2022-12-19T13:20:42;3.30;99.90
7030;DHT22;3556;53.500;10.176;2022-12-19T13:23:33;3.40;99.90
7030;DHT22;3556;53.500;10.176;2022-12-19T13:27:04;3.40;99.90
7030;DHT22;3556;53.500;10.176;2022-12-19T13:29:31;3.40;99.90
7030;DHT22;3556;53.500;10.176;2022-12-19T13:32:08;3.40;99.90
7030;DHT22;3556;53.500;10.176;2022-12-19T13:34:35;3.40;99.90
7030;DHT22;3556;53.500;10.176;2022-12-19T13:37:25;3.50;99.90
7030;DHT22;3556;53.500;10.176;2022-12-19T13:42:22;3.60;99.90
7030;DHT22;3556;53.500;10.176;2022-12-19T13:45:14;3.50;99.90
7030;DHT22;3556;53.500;10.176;2022-12-19T13:47:44;3.50;99.90
7030;DHT22;3556;53.500;10.176;2022-12-19T13:52:51;3.60;99.90
7030;DHT22;3556;53.500;10.176;2022-12-19T13:55:18;3.60;99.90
7030;DHT22;3556;53.500;10.176;2022-12-19T13:57:47;3.60;99.90
7030;DHT22;3556;53.500;10.176;2022-12-19T14:00:19;3.70;99.90
7030;DHT22;3556;53.500;10.176;2022-12-19T14:02:49;3.70;99.90
7030;DHT22;3556;53.500;10.176;2022-12-19T14:05:24;3.70;99.90
7030;DHT22;3556;53.500;10.176;2022-12-19T14:07:51;3.70;99.90
7030;DHT22;3556;53.500;10.176;2022-12-19T14:10:31;3.80;99.90
7030;DHT22;3556;53.500;10.176;2022-12-19T14:12:58;3.80;99.90
7030;DHT22;3556;53.500;10.176;2022-12-19T14:15:46;3.80;99.90
7030;DHT22;3556;53.500;10.176;2022-12-19T14:20:43;3.90;99.90
7030;DHT22;3556;53.500;10.176;2022-12-19T14:23:09;3.90;99.90
7030;DHT22;3556;53.500;10.176;2022-12-19T14:25:47;3.90;99.90
7030;DHT22;3556;53.500;10.176;2022-12-19T14:28:20;4.00;99.90
7030;DHT22;3556;53.500;10.176;2022-12-19T14:30:54;4.00;99.90
7030;DHT22;3556;53.500;10.176;2022-12-19T14:33:48;4.00;99.90
7030;DHT22;3556;53.500;10.176;2022-12-19T14:36:13;4.10;99.90
7030;DHT22;3556;53.500;10.176;2022-12-19T14:38:40;4.10;99.90
7030;DHT22;3556;53.500;10.176;2022-12-19T14:41:11;4.10;99.90
7030;DHT22;3556;53.500;10.176;2022-12-19T14:44:02;4.10;99.90
7030;DHT22;3556;53.500;10.176;2022-12-19T14:46:28;4.10;99.90
7030;DHT22;3556;53.500;10.176;2022-12-19T14:48:55;4.20;99.90
7030;DHT22;3556;53.500;10.176;2022-12-19T14:51:38;4.20;99.90
7030;DHT22;3556;53.500;10.176;2022-12-19T14:54:20;4.20;99.90
7030;DHT22;3556;53.500;10.176;2022-12-19T14:56:59;4.30;99.90
7030;DHT22;3556;53.500;10.176;2022-12-19T14:59:42;4.30;99.90
7030;DHT22;3556;53.500;10.176;2022-12-19T15:02:17;4.30;99.90
7030;DHT22;3556;53.500;10.176;2022-12-19T15:04:47;4.40;99.90
7030;DHT22;3556;53.500;10.176;2022-12-19T15:07:22;4.40;99.90
7030;DHT22;3556;53.500;10.176;2022-12-19T15:10:01;4.40;99.90
7030;DHT22;3556;53.500;10.176;2022-12-19T15:12:32;4.40;99.90
7030;DHT22;3556;53.500;10.176;2022-12-19T15:15:20;4.40;99.90
7030;DHT22;3556;53.500;10.176;2022-12-19T15:17:53;4.50;99.90
7030;DHT22;3556;53.500;10.176;2022-12-19T15:20:20;4.50;99.90
7030;DHT22;3556;53.500;10.176;2022-12-19T15:22:46;4.60;99.90
7030;DHT22;3556;53.500;10.176;2022-12-19T15:25:14;4.60;99.90
7030;DHT22;3556;53.500;10.176;2022-12-19T15:27:42;4.60;99.90
7030;DHT22;3556;53.500;10.176;2022-12-19T15:30:16;4.60;99.90
7030;DHT22;3556;53.500;10.176;2022-12-19T15:32:42;4.70;99.90
7030;DHT22;3556;53.500;10.176;2022-12-19T15:35:13;4.70;99.90
7030;DHT22;3556;53.500;10.176;2022-12-19T15:37:39;4.80;99.90
7030;DHT22;3556;53.500;10.176;2022-12-19T15:40:06;4.90;99.90
7030;DHT22;3556;53.500;10.176;2022-12-19T15:42:32;5.00;99.90
7030;DHT22;3556;53.500;10.176;2022-12-19T15:44:59;5.00;99.90
7030;DHT22;3556;53.500;10.176;2022-12-19T15:47:31;5.10;99.90
7030;DHT22;3556;53.500;10.176;2022-12-19T15:49:57;5.10;99.90
7030;DHT22;3556;53.500;10.176;2022-12-19T15:52:27;5.20;99.90
7030;DHT22;3556;53.500;10.176;2022-12-19T15:54:52;5.20;99.90
7030;DHT22;3556;53.500;10.176;2022-12-19T15:57:31;5.30;99.90
7030;DHT22;3556;53.500;10.176;2022-12-19T16:00:02;5.40;99.90
7030;DHT22;3556;53.500;10.176;2022-12-19T16:02:30;5.40;99.90
7030;DHT22;3556;53.500;10.176;2022-12-19T16:04:56;5.40;99.90
7030;DHT22;3556;53.500;10.176;2022-12-19T16:07:22;5.40;99.90
7030;DHT22;3556;53.500;10.176;2022-12-19T16:09:50;5.40;99.90
7030;DHT22;3556;53.500;10.176;2022-12-19T16:12:19;5.40;99.90
7030;DHT22;3556;53.500;10.176;2022-12-19T16:14:48;5.50;99.90
7030;DHT22;3556;53.500;10.176;2022-12-19T16:17:20;5.50;99.90
7030;DHT22;3556;53.500;10.176;2022-12-19T16:19:45;5.50;99.90
7030;DHT22;3556;53.500;10.176;2022-12-19T16:22:29;5.50;99.90
7030;DHT22;3556;53.500;10.176;2022-12-19T16:24:55;5.50;99.90
7030;DHT22;3556;53.500;10.176;2022-12-19T16:27:24;5.60;99.90
7030;DHT22;3556;53.500;10.176;2022-12-19T16:29:51;5.60;99.90
7030;DHT22;3556;53.500;10.176;2022-12-19T16:32:18;5.60;99.90
7030;DHT22;3556;53.500;10.176;2022-12-19T16:34:44;5.70;99.90
7030;DHT22;3556;53.500;10.176;2022-12-19T16:37:10;5.70;99.90
7030;DHT22;3556;53.500;10.176;2022-12-19T16:39:36;5.70;99.90
7030;DHT22;3556;53.500;10.176;2022-12-19T16:42:04;5.70;99.90
7030;DHT22;3556;53.500;10.176;2022-12-19T16:44:35;5.70;99.90
7030;DHT22;3556;53.500;10.176;2022-12-19T16:47:01;5.70;99.90
7030;DHT22;3556;53.500;10.176;2022-12-19T16:49:27;5.70;99.90
7030;DHT22;3556;53.500;10.176;2022-12-19T16:51:54;5.70;99.90
7030;DHT22;3556;53.500;10.176;2022-12-19T16:54:19;5.70;99.90
7030;DHT22;3556;53.500;10.176;2022-12-19T16:56:53;5.70;99.90
7030;DHT22;3556;53.500;10.176;2022-12-19T16:59:31;5.80;99.90
7030;DHT22;3556;53.500;10.176;2022-12-19T17:01:58;5.80;99.90
7030;DHT22;3556;53.500;10.176;2022-12-19T17:04:25;5.80;99.90
7030;DHT22;3556;53.500;10.176;2022-12-19T17:06:52;5.80;99.90
7030;DHT22;3556;53.500;10.176;2022-12-19T17:09:23;5.80;99.90
7030;DHT22;3556;53.500;10.176;2022-12-19T17:11:55;5.80;99.90
7030;DHT22;3556;53.500;10.176;2022-12-19T17:14:23;5.80;99.90
7030;DHT22;3556;53.500;10.176;2022-12-19T17:16:51;5.80;99.90
7030;DHT22;3556;53.500;10.176;2022-12-19T17:19:22;5.90;99.90
7030;DHT22;3556;53.500;10.176;2022-12-19T17:21:50;5.90;99.90
7030;DHT22;3556;53.500;10.176;2022-12-19T17:24:16;5.90;99.90
7030;DHT22;3556;53.500;10.176;2022-12-19T17:26:43;5.90;99.90
7030;DHT22;3556;53.500;10.176;2022-12-19T17:29:09;5.90;99.90
7030;DHT22;3556;53.500;10.176;2022-12-19T17:31:35;5.90;99.90
7030;DHT22;3556;53.500;10.176;2022-12-19T17:36:50;5.90;99.90
7030;DHT22;3556;53.500;10.176;2022-12-19T17:39:19;5.90;99.90
7030;DHT22;3556;53.500;10.176;2022-12-19T17:41:47;6.00;99.90
7030;DHT22;3556;53.500;10.176;2022-12-19T17:44:12;6.00;99.90
7030;DHT22;3556;53.500;10.176;2022-12-19T17:46:38;6.00;99.90
7030;DHT22;3556;53.500;10.176;2022-12-19T17:49:04;5.90;99.90
7030;DHT22;3556;53.500;10.176;2022-12-19T17:51:30;5.90;99.90
7030;DHT22;3556;53.500;10.176;2022-12-19T17:53:56;6.00;99.90
7030;DHT22;3556;53.500;10.176;2022-12-19T17:56:21;6.00;99.90
7030;DHT22;3556;53.500;10.176;2022-12-19T17:58:50;6.00;99.90
7030;DHT22;3556;53.500;10.176;2022-12-19T18:01:22;6.00;99.90
7030;DHT22;3556;53.500;10.176;2022-12-19T18:03:50;6.00;99.90
7030;DHT22;3556;53.500;10.176;2022-12-19T18:06:16;6.00;99.90
7030;DHT22;3556;53.500;10.176;2022-12-19T18:08:42;5.90;99.90
7030;DHT22;3556;53.500;10.176;2022-12-19T18:11:24;5.90;99.90
7030;DHT22;3556;53.500;10.176;2022-12-19T18:13:50;5.90;99.90
7030;DHT22;3556;53.500;10.176;2022-12-19T18:16:18;5.90;99.90